createdAt,value
2018-05-02T00:02:11.340Z,12.62
2018-05-02T00:04:37.281Z,12.61
2018-05-02T00:07:03.345Z,12.98
2018-05-02T00:09:29.297Z,12.26
2018-05-02T00:11:55.228Z,12.62
2018-05-02T00:14:21.146Z,12.97
2018-05-02T00:16:47.103Z,12.12
2018-05-02T00:19:13.040Z,12.18
2018-05-02T00:21:39.013Z,12.21
2018-05-02T00:24:04.953Z,11.98
2018-05-02T00:26:30.912Z,12.21
2018-05-02T00:28:56.866Z,12.37
2018-05-02T00:31:22.839Z,12.54
2018-05-02T00:33:48.771Z,12.18
2018-05-02T00:36:14.726Z,12.53
2018-05-02T00:38:40.659Z,12.63
2018-05-02T00:41:06.604Z,12.64
2018-05-02T00:43:32.540Z,12.56
2018-05-02T00:45:58.499Z,12.47
2018-05-02T00:48:24.425Z,12.56
2018-05-02T00:50:50.385Z,12.35
2018-05-02T00:53:16.341Z,12.46
2018-05-02T00:55:42.293Z,12.51
2018-05-02T00:58:08.271Z,12.26
2018-05-02T01:00:34.252Z,11.84
2018-05-02T01:03:00.218Z,11.55
2018-05-02T01:05:26.167Z,12.08
2018-05-02T01:07:52.168Z,12.18
2018-05-02T01:10:18.131Z,11.88
2018-05-02T01:12:44.075Z,12.03
2018-05-02T01:15:10.039Z,11.48
2018-05-02T01:17:35.991Z,11.74
2018-05-02T01:20:01.924Z,11.70
2018-05-02T01:22:27.863Z,11.67
2018-05-02T01:24:53.809Z,11.53
2018-05-02T01:27:19.752Z,11.21
2018-05-02T01:29:45.715Z,11.21
2018-05-02T01:32:11.681Z,11.33
2018-05-02T01:34:37.634Z,11.52
2018-05-02T01:37:03.574Z,11.72
2018-05-02T01:39:29.520Z,11.62
2018-05-02T01:41:55.504Z,11.70
2018-05-02T01:44:21.453Z,12.05
2018-05-02T01:46:47.406Z,12.21
2018-05-02T01:49:13.342Z,11.66
2018-05-02T01:51:39.285Z,11.27
2018-05-02T01:54:05.242Z,11.40
2018-05-02T01:56:31.182Z,12.08
2018-05-02T01:58:57.132Z,12.14
2018-05-02T02:01:23.079Z,11.52
2018-05-02T02:03:49.038Z,11.46
2018-05-02T02:06:14.984Z,11.67
2018-05-02T02:08:40.912Z,11.87
2018-05-02T02:11:06.857Z,11.67
2018-05-02T02:13:32.779Z,11.76
2018-05-02T02:15:58.716Z,11.86
2018-05-02T02:18:24.666Z,11.92
2018-05-02T02:20:50.617Z,11.23
2018-05-02T02:23:16.548Z,10.96
2018-05-02T02:25:42.504Z,10.84
2018-05-02T02:28:08.441Z,11.26
2018-05-02T02:30:34.415Z,11.49
2018-05-02T02:33:00.370Z,11.69
2018-05-02T02:35:26.301Z,11.72
2018-05-02T02:37:52.224Z,11.76
2018-05-02T02:40:18.168Z,11.59
2018-05-02T02:42:44.109Z,11.91
2018-05-02T02:45:10.092Z,11.80
2018-05-02T02:47:36.037Z,12.07
2018-05-02T02:50:01.978Z,11.18
2018-05-02T02:52:27.918Z,11.56
2018-05-02T02:54:53.874Z,11.84
2018-05-02T02:57:19.824Z,11.85
2018-05-02T02:59:45.788Z,11.92
2018-05-02T03:02:11.719Z,12.22
2018-05-02T03:04:37.669Z,11.54
2018-05-02T03:07:03.605Z,11.63
2018-05-02T03:09:29.568Z,12.02
2018-05-02T03:11:55.539Z,12.15
2018-05-02T03:14:21.529Z,11.99
2018-05-02T03:16:47.477Z,12.11
2018-05-02T03:19:13.447Z,12.33
2018-05-02T03:21:39.468Z,11.85
2018-05-02T03:24:05.438Z,11.25
2018-05-02T03:26:31.369Z,11.73
2018-05-02T03:28:57.331Z,12.09
2018-05-02T03:31:23.277Z,11.65
2018-05-02T03:33:49.236Z,11.54
2018-05-02T03:36:15.166Z,11.86
2018-05-02T03:38:41.133Z,11.80
2018-05-02T03:41:07.070Z,11.68
2018-05-02T03:43:33.003Z,11.82
2018-05-02T03:45:58.944Z,11.96
2018-05-02T03:48:24.900Z,11.66
2018-05-02T03:50:50.875Z,11.62
2018-05-02T03:53:16.823Z,11.44
2018-05-02T03:55:42.773Z,11.49
2018-05-02T03:58:08.701Z,11.37
2018-05-02T04:00:34.654Z,11.56
2018-05-02T04:03:00.586Z,11.46
2018-05-02T04:05:26.549Z,11.41
2018-05-02T04:07:52.481Z,11.40
2018-05-02T04:10:18.421Z,11.36
2018-05-02T04:12:44.371Z,11.21
2018-05-02T04:15:10.330Z,11.57
2018-05-02T04:17:36.257Z,11.60
2018-05-02T04:20:02.182Z,12.15
2018-05-02T04:22:28.120Z,11.32
2018-05-02T04:24:54.359Z,11.65
2018-05-02T04:27:20.304Z,11.90
2018-05-02T04:29:46.249Z,12.27
2018-05-02T04:32:12.206Z,11.79
2018-05-02T04:34:38.161Z,11.90
2018-05-02T04:37:04.123Z,12.12
2018-05-02T04:39:30.051Z,12.34
2018-05-02T04:41:55.990Z,12.39
2018-05-02T04:44:21.932Z,12.50
2018-05-02T04:46:48.066Z,12.48
2018-05-02T04:49:14.001Z,12.62
2018-05-02T04:51:39.953Z,12.24
2018-05-02T04:54:05.903Z,12.45
2018-05-02T04:56:31.856Z,12.33
2018-05-02T04:58:57.830Z,12.16
2018-05-02T05:01:23.898Z,12.41
2018-05-02T05:03:49.842Z,12.40
2018-05-02T05:06:15.811Z,12.52
2018-05-02T05:08:41.759Z,12.60
2018-05-02T05:11:07.718Z,12.49
2018-05-02T05:13:33.672Z,12.60
2018-05-02T05:15:59.623Z,12.85
2018-05-02T05:18:25.571Z,12.46
2018-05-02T05:20:51.526Z,12.13
2018-05-02T05:23:17.496Z,11.79
2018-05-02T05:25:43.440Z,11.83
2018-05-02T05:28:09.435Z,11.98
2018-05-02T05:30:35.368Z,11.86
2018-05-02T05:33:01.322Z,12.49
2018-05-02T05:35:27.261Z,12.25
2018-05-02T05:37:53.217Z,12.37
2018-05-02T05:40:19.153Z,12.51
2018-05-02T05:42:45.116Z,12.40
2018-05-02T05:45:11.076Z,12.41
2018-05-02T05:47:37.004Z,12.65
2018-05-02T05:50:02.967Z,12.75
2018-05-02T05:52:28.900Z,12.92
2018-05-02T05:54:54.859Z,12.82
2018-05-02T05:57:20.828Z,13.13
2018-05-02T05:59:46.792Z,13.17
2018-05-02T06:02:12.734Z,12.90
2018-05-02T06:04:38.689Z,12.93
2018-05-02T06:07:04.662Z,12.98
2018-05-02T06:09:30.619Z,12.69
2018-05-02T06:11:56.657Z,12.76
2018-05-02T06:14:22.630Z,13.11
2018-05-02T06:16:48.602Z,13.08
2018-05-02T06:19:14.553Z,13.22
2018-05-02T06:21:40.532Z,13.25
2018-05-02T06:24:06.466Z,12.92
2018-05-02T06:26:32.427Z,12.93
2018-05-02T06:28:58.508Z,12.72
2018-05-02T06:31:24.484Z,12.78
2018-05-02T06:33:50.418Z,12.72
2018-05-02T06:36:16.366Z,12.47
2018-05-02T06:38:42.319Z,12.68
2018-05-02T06:41:08.273Z,12.79
2018-05-02T06:43:34.238Z,12.65
2018-05-02T06:46:00.190Z,12.67
2018-05-02T06:48:26.140Z,12.66
2018-05-02T06:50:52.110Z,12.69
2018-05-02T06:53:18.545Z,13.04
2018-05-02T06:55:44.498Z,13.07
2018-05-02T06:58:10.484Z,13.02
2018-05-02T07:00:36.479Z,13.21
2018-05-02T07:03:02.428Z,13.15
2018-05-02T07:05:28.392Z,13.33
2018-05-02T07:07:54.326Z,13.27
2018-05-02T07:10:20.269Z,13.18
2018-05-02T07:12:46.205Z,13.46
2018-05-02T07:15:12.205Z,13.54
2018-05-02T07:17:38.139Z,13.55
2018-05-02T07:20:04.086Z,13.49
2018-05-02T07:22:30.081Z,13.41
2018-05-02T07:24:56.009Z,13.50
2018-05-02T07:27:21.941Z,13.50
2018-05-02T07:29:47.864Z,13.57
2018-05-02T07:32:13.807Z,13.57
2018-05-02T07:34:39.742Z,13.54
2018-05-02T07:37:05.694Z,13.68
2018-05-02T07:39:31.639Z,13.71
2018-05-02T07:41:57.593Z,13.65
2018-05-02T07:44:23.537Z,13.76
2018-05-02T07:46:49.500Z,13.61
2018-05-02T07:49:15.455Z,13.66
2018-05-02T07:51:41.426Z,13.69
2018-05-02T07:54:07.357Z,13.84
2018-05-02T07:56:33.378Z,14.35
2018-05-02T07:58:59.216Z,14.59
2018-05-02T08:01:25.178Z,14.81
2018-05-02T08:03:51.134Z,14.88
2018-05-02T08:06:17.105Z,14.87
2018-05-02T08:08:43.033Z,14.87
2018-05-02T08:11:09.066Z,15.26
2018-05-02T08:13:34.983Z,15.44
2018-05-02T08:16:00.942Z,15.39
2018-05-02T08:18:26.897Z,15.61
2018-05-02T08:20:52.849Z,15.49
2018-05-02T08:23:18.813Z,15.31
2018-05-02T08:25:44.758Z,14.85
2018-05-02T08:28:10.702Z,14.90
2018-05-02T08:30:36.652Z,14.93
2018-05-02T08:33:02.610Z,14.98
2018-05-02T08:35:28.553Z,15.03
2018-05-02T08:37:54.506Z,15.32
2018-05-02T08:40:20.453Z,15.44
2018-05-02T08:42:46.396Z,15.57
2018-05-02T08:45:12.382Z,15.45
2018-05-02T08:47:38.326Z,15.64
2018-05-02T08:50:04.289Z,15.62
2018-05-02T08:52:30.258Z,15.71
2018-05-02T08:54:56.229Z,15.66
2018-05-02T08:57:22.228Z,15.81
2018-05-02T08:59:48.187Z,15.92
2018-05-02T09:02:14.130Z,15.92
2018-05-02T09:04:40.109Z,15.85
2018-05-02T09:07:06.059Z,15.96
2018-05-02T09:09:32.025Z,16.13
2018-05-02T09:11:57.970Z,16.06
2018-05-02T09:14:23.930Z,16.17
2018-05-02T09:16:49.863Z,16.21
2018-05-02T09:19:15.829Z,16.25
2018-05-02T09:21:41.771Z,16.20
2018-05-02T09:24:07.739Z,16.29
2018-05-02T09:26:33.696Z,16.26
2018-05-02T09:28:59.644Z,16.13
2018-05-02T09:31:25.569Z,16.35
2018-05-02T09:33:51.513Z,16.48
2018-05-02T09:36:17.453Z,16.55
2018-05-02T09:38:43.432Z,16.43
2018-05-02T09:41:09.374Z,16.52
2018-05-02T09:43:35.452Z,16.62
2018-05-02T09:46:01.378Z,16.58
2018-05-02T09:48:27.327Z,16.45
2018-05-02T09:50:53.307Z,16.50
2018-05-02T09:53:19.240Z,16.60
2018-05-02T09:55:45.186Z,16.34
2018-05-02T09:58:11.167Z,16.56
2018-05-02T10:00:37.140Z,16.64
2018-05-02T10:03:03.084Z,16.72
2018-05-02T10:05:29.024Z,16.89
2018-05-02T10:07:54.969Z,16.98
2018-05-02T10:10:20.910Z,16.90
2018-05-02T10:12:46.873Z,16.89
2018-05-02T10:15:12.817Z,16.72
2018-05-02T10:17:38.752Z,16.81
2018-05-02T10:20:04.694Z,16.93
2018-05-02T10:22:30.648Z,16.99
2018-05-02T10:24:56.630Z,17.10
2018-05-02T10:27:22.571Z,17.13
2018-05-02T10:29:48.504Z,17.01
2018-05-02T10:32:14.453Z,17.12
2018-05-02T10:34:40.428Z,17.15
2018-05-02T10:37:06.385Z,16.96
2018-05-02T10:39:32.345Z,16.98
2018-05-02T10:41:58.315Z,17.12
2018-05-02T10:44:24.253Z,17.14
2018-05-02T10:46:50.205Z,17.08
2018-05-02T10:49:16.210Z,17.16
2018-05-02T10:51:42.091Z,17.22
2018-05-02T10:54:08.076Z,17.28
2018-05-02T10:56:34.028Z,17.34
2018-05-02T10:58:59.953Z,17.34
2018-05-02T11:01:25.903Z,17.36
2018-05-02T11:03:51.829Z,17.28
2018-05-02T11:06:17.754Z,17.39
2018-05-02T11:08:43.700Z,17.50
2018-05-02T11:11:09.664Z,17.36
2018-05-02T11:13:35.596Z,17.41
2018-05-02T11:16:01.532Z,17.37
2018-05-02T11:18:27.485Z,17.41
2018-05-02T11:20:53.450Z,17.45
2018-05-02T11:23:19.410Z,17.47
2018-05-02T11:25:45.368Z,17.45
2018-05-02T11:28:11.283Z,17.36
2018-05-02T11:30:37.217Z,17.42
2018-05-02T11:33:03.161Z,17.42
2018-05-02T11:35:29.098Z,17.23
2018-05-02T11:37:55.046Z,17.28
2018-05-02T11:40:21.004Z,17.36
2018-05-02T11:42:46.949Z,17.40
2018-05-02T11:45:12.901Z,17.57
2018-05-02T11:47:38.833Z,17.47
2018-05-02T11:50:04.782Z,17.38
2018-05-02T11:52:30.712Z,17.48
2018-05-02T11:54:56.661Z,17.54
2018-05-02T11:57:22.620Z,17.33
2018-05-02T11:59:48.589Z,17.39
2018-05-02T12:02:14.551Z,17.47
2018-05-02T12:04:40.494Z,17.54
2018-05-02T12:07:06.449Z,17.71
2018-05-02T12:09:32.374Z,17.78
2018-05-02T12:11:58.313Z,17.60
2018-05-02T12:14:24.249Z,17.76
2018-05-02T12:16:50.188Z,17.85
2018-05-02T12:19:16.136Z,17.84
2018-05-02T12:21:42.104Z,17.71
2018-05-02T12:24:08.035Z,17.72
2018-05-02T12:26:33.988Z,17.77
2018-05-02T12:28:59.936Z,17.80
2018-05-02T12:31:25.916Z,17.82
2018-05-02T12:33:51.884Z,17.91
2018-05-02T12:36:17.850Z,17.89
2018-05-02T12:38:43.773Z,17.85
2018-05-02T12:41:09.728Z,17.74
2018-05-02T12:43:35.682Z,17.86
2018-05-02T12:46:01.632Z,17.80
2018-05-02T12:48:27.588Z,17.73
2018-05-02T12:50:53.538Z,17.82
2018-05-02T12:53:19.503Z,17.91
2018-05-02T12:55:45.569Z,18.04
2018-05-02T12:58:11.438Z,18.13
2018-05-02T13:00:37.412Z,18.11
2018-05-02T13:03:03.409Z,18.06
2018-05-02T13:05:29.371Z,17.98
2018-05-02T13:07:55.325Z,18.06
2018-05-02T13:10:21.249Z,18.04
2018-05-02T13:12:47.192Z,18.08
2018-05-02T13:15:13.134Z,17.91
2018-05-02T13:17:39.097Z,18.09
2018-05-02T13:20:05.052Z,18.04
2018-05-02T13:22:31.021Z,17.93
2018-05-02T13:24:56.979Z,17.89
2018-05-02T13:27:22.914Z,18.00
2018-05-02T13:29:48.838Z,18.10
2018-05-02T13:32:14.784Z,18.15
2018-05-02T13:34:40.736Z,18.12
2018-05-02T13:37:06.689Z,18.21
2018-05-02T13:39:32.651Z,18.19
2018-05-02T13:41:58.600Z,18.21
2018-05-02T13:44:24.546Z,18.22
2018-05-02T13:46:50.505Z,18.12
2018-05-02T13:49:16.494Z,18.18
2018-05-02T13:51:42.465Z,18.21
2018-05-02T13:54:08.389Z,18.20
2018-05-02T13:56:34.331Z,18.21
2018-05-02T13:59:00.264Z,18.25
2018-05-02T14:01:26.227Z,18.08
2018-05-02T14:03:52.171Z,18.13
2018-05-02T14:06:18.143Z,18.16
2018-05-02T14:08:44.199Z,18.23
2018-05-02T14:11:10.186Z,18.40
2018-05-02T14:13:36.199Z,18.49
2018-05-02T14:16:02.337Z,18.60
2018-05-02T14:18:28.347Z,18.63
2018-05-02T14:20:54.285Z,18.56
2018-05-02T14:23:20.260Z,18.41
2018-05-02T14:25:46.232Z,18.40
2018-05-02T14:28:12.210Z,18.34
2018-05-02T14:30:38.149Z,18.37
2018-05-02T14:33:04.115Z,18.31
2018-05-02T14:35:30.071Z,18.31
2018-05-02T14:37:56.014Z,18.33
2018-05-02T14:40:21.941Z,18.34
2018-05-02T14:42:47.897Z,18.44
2018-05-02T14:45:13.873Z,18.52
2018-05-02T14:47:39.888Z,18.56
2018-05-02T14:50:05.936Z,18.64
2018-05-02T14:52:31.868Z,18.58
2018-05-02T14:54:57.815Z,18.54
2018-05-02T14:57:23.761Z,18.58
2018-05-02T14:59:49.714Z,18.52
2018-05-02T15:02:15.714Z,18.48
2018-05-02T15:04:41.635Z,18.46
2018-05-02T15:07:07.646Z,18.46
2018-05-02T15:09:34.184Z,18.54
2018-05-02T15:12:00.156Z,18.47
2018-05-02T15:14:26.148Z,18.50
2018-05-02T15:16:52.122Z,18.56
2018-05-02T15:19:18.084Z,18.62
2018-05-02T15:21:44.037Z,18.56
2018-05-02T15:24:09.981Z,18.51
2018-05-02T15:26:36.986Z,18.44
2018-05-02T15:29:02.982Z,18.40
2018-05-02T15:31:28.931Z,18.38
2018-05-02T15:33:54.995Z,18.48
2018-05-02T15:36:20.933Z,18.48
2018-05-02T15:38:46.891Z,18.40
2018-05-02T15:41:12.836Z,18.44
2018-05-02T15:43:38.787Z,18.46
2018-05-02T15:46:04.729Z,18.44
2018-05-02T15:48:30.690Z,18.46
2018-05-02T15:50:56.657Z,18.39
2018-05-02T15:53:22.629Z,18.42
2018-05-02T15:55:49.929Z,18.37
2018-05-02T15:58:16.066Z,18.38
2018-05-02T16:00:42.000Z,18.40
2018-05-02T16:03:07.949Z,18.50
2018-05-02T16:05:33.905Z,18.46
2018-05-02T16:07:59.857Z,18.51
2018-05-02T16:10:25.832Z,18.53
2018-05-02T16:12:51.774Z,18.58
2018-05-02T16:15:17.700Z,18.54
2018-05-02T16:17:43.622Z,18.58
2018-05-02T16:20:09.573Z,18.60
2018-05-02T16:22:35.559Z,18.59
2018-05-02T16:25:01.567Z,18.58
2018-05-02T16:27:27.532Z,18.56
2018-05-02T16:29:53.500Z,18.51
2018-05-02T16:32:20.600Z,18.54
2018-05-02T16:34:46.563Z,18.47
2018-05-02T16:37:12.513Z,18.51
2018-05-02T16:39:38.527Z,18.49
2018-05-02T16:42:04.585Z,18.44
2018-05-02T16:44:30.538Z,18.46
2018-05-02T16:46:56.498Z,18.47
2018-05-02T16:49:22.498Z,18.47
2018-05-02T16:51:48.557Z,18.50
2018-05-02T16:54:15.509Z,18.43
2018-05-02T16:56:41.582Z,18.45
2018-05-02T16:59:07.575Z,18.41
2018-05-02T17:01:33.542Z,18.54
2018-05-02T17:03:59.471Z,18.47
2018-05-02T17:06:25.817Z,18.46
2018-05-02T17:08:51.762Z,18.42
2018-05-02T17:11:17.795Z,18.49
2018-05-02T17:13:43.719Z,18.51
2018-05-02T17:16:09.679Z,18.55
2018-05-02T17:18:35.630Z,18.52
2018-05-02T17:21:01.683Z,18.49
2018-05-02T17:23:27.639Z,18.48
2018-05-02T17:25:53.631Z,18.50
2018-05-02T17:28:19.565Z,18.53
2018-05-02T17:30:45.523Z,18.50
2018-05-02T17:33:11.622Z,18.47
2018-05-02T17:35:37.578Z,18.51
2018-05-02T17:38:03.635Z,18.47
2018-05-02T17:40:29.588Z,18.37
2018-05-02T17:42:57.683Z,18.42
2018-05-02T17:45:23.642Z,18.45
2018-05-02T17:47:50.764Z,18.40
2018-05-02T17:50:16.730Z,18.42
2018-05-02T17:52:42.718Z,18.52
2018-05-02T17:55:08.843Z,18.39
2018-05-02T17:57:34.941Z,18.50
2018-05-02T18:00:00.884Z,18.44
2018-05-02T18:02:26.857Z,18.21
2018-05-02T18:04:52.813Z,18.04
2018-05-02T18:07:18.799Z,17.96
2018-05-02T18:09:44.803Z,18.09
2018-05-02T18:12:10.764Z,18.13
2018-05-02T18:17:08.407Z,18.21
2018-05-02T18:19:34.438Z,18.28
2018-05-02T18:22:00.432Z,18.19
2018-05-02T18:24:26.488Z,18.16
2018-05-02T18:26:52.506Z,18.15
2018-05-02T18:29:18.641Z,18.04
2018-05-02T18:31:44.613Z,18.08
2018-05-02T18:34:10.559Z,17.87
2018-05-02T18:36:36.619Z,18.04
2018-05-02T18:39:02.606Z,18.18
2018-05-02T18:41:28.595Z,18.20
2018-05-02T18:43:54.596Z,18.28
2018-05-02T18:46:20.563Z,18.27
2018-05-02T18:48:46.553Z,18.25
2018-05-02T18:51:12.570Z,18.16
2018-05-02T18:53:38.520Z,18.19
2018-05-02T18:56:04.475Z,18.10
2018-05-02T18:58:30.538Z,18.10
2018-05-02T19:00:56.469Z,17.82
2018-05-02T19:03:22.512Z,17.68
2018-05-02T19:05:48.495Z,17.52
2018-05-02T19:08:14.478Z,17.63
2018-05-02T19:10:40.461Z,17.57
2018-05-02T19:13:06.443Z,17.73
2018-05-02T19:15:32.438Z,17.83
2018-05-02T19:17:58.412Z,17.89
2018-05-02T19:20:24.406Z,17.94
2018-05-02T19:22:50.373Z,17.81
2018-05-02T19:25:16.421Z,17.71
2018-05-02T19:27:42.400Z,17.60
2018-05-02T19:30:08.361Z,17.64
2018-05-02T19:32:34.338Z,17.70
2018-05-02T19:35:00.361Z,17.60
2018-05-02T19:37:26.370Z,17.58
2018-05-02T19:39:52.385Z,17.65
2018-05-02T19:42:18.439Z,17.43
2018-05-02T19:44:44.429Z,17.35
2018-05-02T19:47:10.487Z,17.64
2018-05-02T19:49:36.460Z,17.73
2018-05-02T19:52:02.468Z,17.62
2018-05-02T19:54:28.586Z,17.67
2018-05-02T19:56:54.547Z,17.77
2018-05-02T19:59:20.630Z,17.71
2018-05-02T20:01:46.611Z,17.39
2018-05-02T20:04:12.579Z,17.50
2018-05-02T20:06:40.647Z,17.33
2018-05-02T20:09:06.620Z,17.37
2018-05-02T20:11:32.625Z,17.39
2018-05-02T20:13:58.585Z,17.44
2018-05-02T20:16:24.536Z,17.45
2018-05-02T20:18:50.569Z,17.46
2018-05-02T20:21:16.546Z,17.60
2018-05-02T20:23:42.491Z,17.64
2018-05-02T20:26:08.466Z,17.62
2018-05-02T20:28:34.418Z,17.47
2018-05-02T20:31:00.389Z,17.55
2018-05-02T20:33:26.363Z,17.58
2018-05-02T20:35:52.325Z,17.53
2018-05-02T20:38:18.268Z,17.54
2018-05-02T20:40:44.215Z,17.21
2018-05-02T20:43:10.203Z,16.98
2018-05-02T20:45:36.165Z,16.88
2018-05-02T20:48:02.119Z,16.94
2018-05-02T20:50:28.078Z,17.12
2018-05-02T20:52:54.026Z,17.23
2018-05-02T20:55:19.973Z,17.35
2018-05-02T20:57:45.910Z,17.31
2018-05-02T21:00:11.889Z,17.31
2018-05-02T21:02:37.847Z,17.30
2018-05-02T21:05:03.851Z,17.35
2018-05-02T21:07:29.803Z,17.38
2018-05-02T21:09:55.734Z,17.34
2018-05-02T21:12:21.673Z,17.28
2018-05-02T21:14:47.635Z,17.36
2018-05-02T21:17:13.652Z,17.40
2018-05-02T21:19:39.556Z,17.39
2018-05-02T21:22:05.506Z,17.25
2018-05-02T21:24:31.436Z,17.19
2018-05-02T21:26:57.400Z,17.18
2018-05-02T21:29:23.380Z,17.28
2018-05-02T21:31:49.345Z,17.32
2018-05-02T21:34:15.282Z,17.27
2018-05-02T21:36:41.235Z,17.25
2018-05-02T21:39:07.247Z,17.29
2018-05-02T21:41:33.182Z,17.13
2018-05-02T21:43:59.123Z,17.15
2018-05-02T21:46:25.228Z,17.21
2018-05-02T21:48:51.162Z,17.01
2018-05-02T21:51:17.159Z,17.15
2018-05-02T21:53:43.099Z,17.01
2018-05-02T21:56:09.059Z,16.81
2018-05-02T21:58:35.001Z,16.95
2018-05-02T22:01:00.965Z,16.88
2018-05-02T22:03:26.906Z,16.69
2018-05-02T22:05:52.857Z,16.78
2018-05-02T22:08:18.829Z,16.69
2018-05-02T22:10:44.789Z,16.62
2018-05-02T22:13:10.746Z,16.44
2018-05-02T22:15:36.678Z,16.53
2018-05-02T22:18:02.634Z,16.65
2018-05-02T22:20:28.597Z,16.80
2018-05-02T22:22:54.526Z,16.89
2018-05-02T22:25:20.508Z,16.83
2018-05-02T22:27:46.458Z,16.53
2018-05-02T22:30:12.900Z,16.75
2018-05-02T22:32:38.842Z,16.93
2018-05-02T22:35:04.923Z,16.88
2018-05-02T22:37:31.036Z,16.52
2018-05-02T22:39:56.971Z,16.52
2018-05-02T22:42:22.916Z,16.58
2018-05-02T22:44:48.851Z,16.39
2018-05-02T22:47:14.823Z,16.69
2018-05-02T22:49:40.815Z,16.56
2018-05-02T22:52:06.792Z,16.52
2018-05-02T22:57:05.218Z,16.53
2018-05-02T22:59:31.179Z,16.34
2018-05-02T23:01:57.123Z,16.32
2018-05-02T23:04:23.080Z,16.34
2018-05-02T23:06:49.054Z,16.35
2018-05-02T23:09:15.006Z,16.46
2018-05-02T23:11:40.965Z,16.54
2018-05-02T23:14:06.922Z,16.79
2018-05-02T23:16:32.872Z,16.60
2018-05-02T23:18:58.830Z,16.50
2018-05-02T23:21:24.781Z,16.50
2018-05-02T23:23:50.721Z,16.57
2018-05-02T23:26:16.669Z,16.58
2018-05-02T23:28:42.609Z,16.32
2018-05-02T23:31:08.588Z,16.49
2018-05-02T23:33:34.560Z,16.51
2018-05-02T23:36:00.522Z,16.47
2018-05-02T23:38:26.471Z,16.23
2018-05-02T23:40:52.427Z,16.12
2018-05-02T23:43:18.370Z,16.37
2018-05-02T23:45:44.318Z,16.37
2018-05-02T23:48:10.266Z,16.13
2018-05-02T23:50:36.276Z,16.21
2018-05-02T23:53:02.217Z,16.01
2018-05-02T23:55:28.157Z,16.14
2018-05-02T23:57:54.141Z,16.22
